sensor_id;sensor_type;location;lat;lon;timestamp;P1;durP1;ratioP1;P2;durP2;ratioP2
64966;SDS011;51710;38.732;-121.358;2022-08-21T00:00:25;3.47;;;1.70;;
64966;SDS011;51710;38.732;-121.358;2022-08-21T00:02:55;3.67;;;2.05;;
64966;SDS011;51710;38.732;-121.358;2022-08-21T00:05:26;3.67;;;1.90;;
64966;SDS011;51710;38.732;-121.358;2022-08-21T00:07:54;3.38;;;1.77;;
64966;SDS011;51710;38.732;-121.358;2022-08-21T00:10:22;3.80;;;1.65;;
64966;SDS011;51710;38.732;-121.358;2022-08-21T00:12:49;6.00;;;2.20;;
64966;SDS011;51710;38.732;-121.358;2022-08-21T00:15:18;3.20;;;2.00;;
64966;SDS011;51710;38.732;-121.358;2022-08-21T00:17:47;5.00;;;2.00;;
64966;SDS011;51710;38.732;-121.358;2022-08-21T00:20:14;2.80;;;1.95;;
64966;SDS011;51710;38.732;-121.358;2022-08-21T00:22:43;4.22;;;1.80;;
64966;SDS011;51710;38.732;-121.358;2022-08-21T00:25:11;4.97;;;2.22;;
64966;SDS011;51710;38.732;-121.358;2022-08-21T00:27:41;4.03;;;1.80;;
64966;SDS011;51710;38.732;-121.358;2022-08-21T00:30:09;4.00;;;2.20;;
64966;SDS011;51710;38.732;-121.358;2022-08-21T00:32:40;5.90;;;2.35;;
64966;SDS011;51710;38.732;-121.358;2022-08-21T00:35:10;4.70;;;2.25;;
64966;SDS011;51710;38.732;-121.358;2022-08-21T00:37:39;4.43;;;2.20;;
64966;SDS011;51710;38.732;-121.358;2022-08-21T00:40:08;6.05;;;2.20;;
64966;SDS011;51710;38.732;-121.358;2022-08-21T00:42:39;4.65;;;2.10;;
64966;SDS011;51710;38.732;-121.358;2022-08-21T00:45:07;4.82;;;2.40;;
64966;SDS011;51710;38.732;-121.358;2022-08-21T00:47:34;6.63;;;2.70;;
64966;SDS011;51710;38.732;-121.358;2022-08-21T00:50:03;6.95;;;2.33;;
64966;SDS011;51710;38.732;-121.358;2022-08-21T00:52:32;5.28;;;1.98;;
64966;SDS011;51710;38.732;-121.358;2022-08-21T00:55:02;3.90;;;2.22;;
64966;SDS011;51710;38.732;-121.358;2022-08-21T00:57:33;7.13;;;2.65;;
64966;SDS011;51710;38.732;-121.358;2022-08-21T01:00:06;3.15;;;1.98;;
64966;SDS011;51710;38.732;-121.358;2022-08-21T01:02:36;5.15;;;2.38;;
64966;SDS011;51710;38.732;-121.358;2022-08-21T01:05:03;6.15;;;2.65;;
64966;SDS011;51710;38.732;-121.358;2022-08-21T01:07:31;6.57;;;2.08;;
64966;SDS011;51710;38.732;-121.358;2022-08-21T01:09:58;4.45;;;2.03;;
64966;SDS011;51710;38.732;-121.358;2022-08-21T01:12:26;3.22;;;1.88;;
64966;SDS011;51710;38.732;-121.358;2022-08-21T01:14:52;4.57;;;1.80;;
64966;SDS011;51710;38.732;-121.358;2022-08-21T01:17:20;4.20;;;1.98;;
64966;SDS011;51710;38.732;-121.358;2022-08-21T01:19:48;3.65;;;2.22;;
64966;SDS011;51710;38.732;-121.358;2022-08-21T01:22:15;5.00;;;1.88;;
64966;SDS011;51710;38.732;-121.358;2022-08-21T01:24:45;7.55;;;2.10;;
64966;SDS011;51710;38.732;-121.358;2022-08-21T01:27:12;3.92;;;2.00;;
64966;SDS011;51710;38.732;-121.358;2022-08-21T01:32:18;3.33;;;1.95;;
64966;SDS011;51710;38.732;-121.358;2022-08-21T01:34:47;4.38;;;2.10;;
64966;SDS011;51710;38.732;-121.358;2022-08-21T01:37:16;5.28;;;1.77;;
64966;SDS011;51710;38.732;-121.358;2022-08-21T01:39:44;3.65;;;1.98;;
64966;SDS011;51710;38.732;-121.358;2022-08-21T01:42:13;4.07;;;2.00;;
64966;SDS011;51710;38.732;-121.358;2022-08-21T01:44:40;5.70;;;2.08;;
64966;SDS011;51710;38.732;-121.358;2022-08-21T01:47:08;3.78;;;2.53;;
64966;SDS011;51710;38.732;-121.358;2022-08-21T01:49:36;4.65;;;2.55;;
64966;SDS011;51710;38.732;-121.358;2022-08-21T01:52:04;5.45;;;2.10;;
64966;SDS011;51710;38.732;-121.358;2022-08-21T01:54:31;4.00;;;1.92;;
64966;SDS011;51710;38.732;-121.358;2022-08-21T01:56:59;5.80;;;2.10;;
64966;SDS011;51710;38.732;-121.358;2022-08-21T01:59:26;4.63;;;2.67;;
64966;SDS011;51710;38.732;-121.358;2022-08-21T02:01:53;5.47;;;1.95;;
64966;SDS011;51710;38.732;-121.358;2022-08-21T02:04:20;6.30;;;1.88;;
64966;SDS011;51710;38.732;-121.358;2022-08-21T02:06:46;3.67;;;1.70;;
64966;SDS011;51710;38.732;-121.358;2022-08-21T02:09:13;3.30;;;2.00;;
64966;SDS011;51710;38.732;-121.358;2022-08-21T02:11:40;5.95;;;1.95;;
64966;SDS011;51710;38.732;-121.358;2022-08-21T02:14:08;6.72;;;2.47;;
64966;SDS011;51710;38.732;-121.358;2022-08-21T02:16:40;2.63;;;1.50;;
64966;SDS011;51710;38.732;-121.358;2022-08-21T02:19:08;5.03;;;2.33;;
64966;SDS011;51710;38.732;-121.358;2022-08-21T02:21:36;3.78;;;1.50;;
64966;SDS011;51710;38.732;-121.358;2022-08-21T02:24:03;3.95;;;2.05;;
64966;SDS011;51710;38.732;-121.358;2022-08-21T02:26:30;5.43;;;1.63;;
64966;SDS011;51710;38.732;-121.358;2022-08-21T02:28:56;3.63;;;1.60;;
64966;SDS011;51710;38.732;-121.358;2022-08-21T02:31:23;2.63;;;1.60;;
64966;SDS011;51710;38.732;-121.358;2022-08-21T02:33:50;2.42;;;1.65;;
64966;SDS011;51710;38.732;-121.358;2022-08-21T02:36:16;2.22;;;1.40;;
64966;SDS011;51710;38.732;-121.358;2022-08-21T02:38:43;4.05;;;1.80;;
64966;SDS011;51710;38.732;-121.358;2022-08-21T02:41:11;4.65;;;1.90;;
64966;SDS011;51710;38.732;-121.358;2022-08-21T02:43:41;5.65;;;2.30;;
64966;SDS011;51710;38.732;-121.358;2022-08-21T02:46:08;3.20;;;1.77;;
64966;SDS011;51710;38.732;-121.358;2022-08-21T02:48:38;5.82;;;1.90;;
64966;SDS011;51710;38.732;-121.358;2022-08-21T02:51:10;3.88;;;1.70;;
64966;SDS011;51710;38.732;-121.358;2022-08-21T02:53:38;4.18;;;1.70;;
64966;SDS011;51710;38.732;-121.358;2022-08-21T02:56:06;2.90;;;1.60;;
64966;SDS011;51710;38.732;-121.358;2022-08-21T02:58:36;2.88;;;1.30;;
64966;SDS011;51710;38.732;-121.358;2022-08-21T03:01:08;2.83;;;1.50;;
64966;SDS011;51710;38.732;-121.358;2022-08-21T03:03:36;4.72;;;1.60;;
64966;SDS011;51710;38.732;-121.358;2022-08-21T03:06:05;2.22;;;1.40;;
64966;SDS011;51710;38.732;-121.358;2022-08-21T03:08:33;3.15;;;1.50;;
64966;SDS011;51710;38.732;-121.358;2022-08-21T03:11:00;2.83;;;1.52;;
64966;SDS011;51710;38.732;-121.358;2022-08-21T03:13:27;3.65;;;1.70;;
64966;SDS011;51710;38.732;-121.358;2022-08-21T03:15:54;1.95;;;1.27;;
64966;SDS011;51710;38.732;-121.358;2022-08-21T03:18:21;2.17;;;1.30;;
64966;SDS011;51710;38.732;-121.358;2022-08-21T03:20:47;3.55;;;1.63;;
64966;SDS011;51710;38.732;-121.358;2022-08-21T03:23:15;4.00;;;1.52;;
64966;SDS011;51710;38.732;-121.358;2022-08-21T03:25:43;6.05;;;1.52;;
64966;SDS011;51710;38.732;-121.358;2022-08-21T03:28:12;2.63;;;1.30;;
64966;SDS011;51710;38.732;-121.358;2022-08-21T03:30:41;2.08;;;1.20;;
64966;SDS011;51710;38.732;-121.358;2022-08-21T03:33:12;3.75;;;1.60;;
64966;SDS011;51710;38.732;-121.358;2022-08-21T03:35:39;2.40;;;1.30;;
64966;SDS011;51710;38.732;-121.358;2022-08-21T03:38:06;4.10;;;1.23;;
64966;SDS011;51710;38.732;-121.358;2022-08-21T03:40:33;2.95;;;1.30;;
64966;SDS011;51710;38.732;-121.358;2022-08-21T03:43:00;3.03;;;1.45;;
64966;SDS011;51710;38.732;-121.358;2022-08-21T03:45:26;3.60;;;1.52;;
64966;SDS011;51710;38.732;-121.358;2022-08-21T03:47:58;4.18;;;1.45;;
64966;SDS011;51710;38.732;-121.358;2022-08-21T03:50:30;6.28;;;1.40;;
64966;SDS011;51710;38.732;-121.358;2022-08-21T03:52:59;2.60;;;1.40;;
64966;SDS011;51710;38.732;-121.358;2022-08-21T03:55:26;5.60;;;1.80;;
64966;SDS011;51710;38.732;-121.358;2022-08-21T03:57:52;3.35;;;1.70;;
64966;SDS011;51710;38.732;-121.358;2022-08-21T04:00:20;4.97;;;1.77;;
64966;SDS011;51710;38.732;-121.358;2022-08-21T04:02:46;4.00;;;1.63;;
64966;SDS011;51710;38.732;-121.358;2022-08-21T04:05:14;3.92;;;1.70;;
64966;SDS011;51710;38.732;-121.358;2022-08-21T04:07:58;4.57;;;1.65;;
64966;SDS011;51710;38.732;-121.358;2022-08-21T04:10:27;6.55;;;1.55;;
64966;SDS011;51710;38.732;-121.358;2022-08-21T04:12:55;4.13;;;1.73;;
64966;SDS011;51710;38.732;-121.358;2022-08-21T04:15:23;3.05;;;1.40;;
64966;SDS011;51710;38.732;-121.358;2022-08-21T04:17:50;4.13;;;1.60;;
64966;SDS011;51710;38.732;-121.358;2022-08-21T04:20:18;3.67;;;1.45;;
64966;SDS011;51710;38.732;-121.358;2022-08-21T04:22:46;3.15;;;1.83;;
64966;SDS011;51710;38.732;-121.358;2022-08-21T04:25:13;7.13;;;2.10;;
64966;SDS011;51710;38.732;-121.358;2022-08-21T04:27:41;4.72;;;1.70;;
64966;SDS011;51710;38.732;-121.358;2022-08-21T04:30:08;4.50;;;2.20;;
64966;SDS011;51710;38.732;-121.358;2022-08-21T04:32:38;4.75;;;1.77;;
64966;SDS011;51710;38.732;-121.358;2022-08-21T04:35:08;4.25;;;2.20;;
64966;SDS011;51710;38.732;-121.358;2022-08-21T04:37:36;4.45;;;2.05;;
64966;SDS011;51710;38.732;-121.358;2022-08-21T04:40:03;5.70;;;1.98;;
64966;SDS011;51710;38.732;-121.358;2022-08-21T04:42:32;3.13;;;1.73;;
64966;SDS011;51710;38.732;-121.358;2022-08-21T04:44:58;4.30;;;1.90;;
64966;SDS011;51710;38.732;-121.358;2022-08-21T04:47:26;5.38;;;2.30;;
64966;SDS011;51710;38.732;-121.358;2022-08-21T04:49:52;6.75;;;2.22;;
64966;SDS011;51710;38.732;-121.358;2022-08-21T04:52:19;4.57;;;1.80;;
64966;SDS011;51710;38.732;-121.358;2022-08-21T04:54:48;5.63;;;2.17;;
64966;SDS011;51710;38.732;-121.358;2022-08-21T04:57:17;5.47;;;2.10;;
64966;SDS011;51710;38.732;-121.358;2022-08-21T04:59:46;5.97;;;2.20;;
64966;SDS011;51710;38.732;-121.358;2022-08-21T05:02:14;6.15;;;2.40;;
64966;SDS011;51710;38.732;-121.358;2022-08-21T05:04:42;4.88;;;2.08;;
64966;SDS011;51710;38.732;-121.358;2022-08-21T05:07:17;8.48;;;2.55;;
64966;SDS011;51710;38.732;-121.358;2022-08-21T05:09:46;5.60;;;2.35;;
64966;SDS011;51710;38.732;-121.358;2022-08-21T05:12:12;7.03;;;2.53;;
64966;SDS011;51710;38.732;-121.358;2022-08-21T05:14:39;5.60;;;2.00;;
64966;SDS011;51710;38.732;-121.358;2022-08-21T05:17:07;8.07;;;2.60;;
64966;SDS011;51710;38.732;-121.358;2022-08-21T05:19:35;6.47;;;2.70;;
64966;SDS011;51710;38.732;-121.358;2022-08-21T05:22:02;5.53;;;2.08;;
64966;SDS011;51710;38.732;-121.358;2022-08-21T05:24:28;7.32;;;2.60;;
64966;SDS011;51710;38.732;-121.358;2022-08-21T05:26:55;7.05;;;2.60;;
64966;SDS011;51710;38.732;-121.358;2022-08-21T05:29:21;7.15;;;2.90;;
64966;SDS011;51710;38.732;-121.358;2022-08-21T05:31:48;5.10;;;2.22;;
64966;SDS011;51710;38.732;-121.358;2022-08-21T05:34:17;7.05;;;2.50;;
64966;SDS011;51710;38.732;-121.358;2022-08-21T05:36:45;5.20;;;2.35;;
64966;SDS011;51710;38.732;-121.358;2022-08-21T05:39:12;8.88;;;2.78;;
64966;SDS011;51710;38.732;-121.358;2022-08-21T05:41:38;6.60;;;2.40;;
64966;SDS011;51710;38.732;-121.358;2022-08-21T05:44:05;5.05;;;2.35;;
64966;SDS011;51710;38.732;-121.358;2022-08-21T05:46:31;7.25;;;2.75;;
64966;SDS011;51710;38.732;-121.358;2022-08-21T05:48:58;5.43;;;2.30;;
64966;SDS011;51710;38.732;-121.358;2022-08-21T05:51:24;4.80;;;2.20;;
64966;SDS011;51710;38.732;-121.358;2022-08-21T05:53:50;4.75;;;2.47;;
64966;SDS011;51710;38.732;-121.358;2022-08-21T05:56:17;6.47;;;2.42;;
64966;SDS011;51710;38.732;-121.358;2022-08-21T05:58:43;4.53;;;2.33;;
64966;SDS011;51710;38.732;-121.358;2022-08-21T06:01:10;6.30;;;2.58;;
64966;SDS011;51710;38.732;-121.358;2022-08-21T06:03:37;9.82;;;2.25;;
64966;SDS011;51710;38.732;-121.358;2022-08-21T06:06:05;6.20;;;2.70;;
64966;SDS011;51710;38.732;-121.358;2022-08-21T06:08:33;5.63;;;2.13;;
64966;SDS011;51710;38.732;-121.358;2022-08-21T06:11:00;8.38;;;2.63;;
64966;SDS011;51710;38.732;-121.358;2022-08-21T06:13:28;5.78;;;3.25;;
64966;SDS011;51710;38.732;-121.358;2022-08-21T06:16:07;5.78;;;2.53;;
64966;SDS011;51710;38.732;-121.358;2022-08-21T06:18:37;5.20;;;2.40;;
64966;SDS011;51710;38.732;-121.358;2022-08-21T06:21:03;6.05;;;2.28;;
64966;SDS011;51710;38.732;-121.358;2022-08-21T06:23:30;5.50;;;2.38;;
64966;SDS011;51710;38.732;-121.358;2022-08-21T06:25:58;4.68;;;2.60;;
64966;SDS011;51710;38.732;-121.358;2022-08-21T06:28:24;5.28;;;2.22;;
64966;SDS011;51710;38.732;-121.358;2022-08-21T06:30:51;5.60;;;2.47;;
64966;SDS011;51710;38.732;-121.358;2022-08-21T06:33:17;4.25;;;2.33;;
64966;SDS011;51710;38.732;-121.358;2022-08-21T06:35:43;4.55;;;2.28;;
64966;SDS011;51710;38.732;-121.358;2022-08-21T06:38:10;5.43;;;2.17;;
64966;SDS011;51710;38.732;-121.358;2022-08-21T06:40:37;5.43;;;2.38;;
64966;SDS011;51710;38.732;-121.358;2022-08-21T06:43:11;6.93;;;2.35;;
64966;SDS011;51710;38.732;-121.358;2022-08-21T06:45:39;5.65;;;2.58;;
64966;SDS011;51710;38.732;-121.358;2022-08-21T06:48:06;6.57;;;2.58;;
64966;SDS011;51710;38.732;-121.358;2022-08-21T06:50:33;7.22;;;2.80;;
64966;SDS011;51710;38.732;-121.358;2022-08-21T06:53:02;7.82;;;2.20;;
64966;SDS011;51710;38.732;-121.358;2022-08-21T06:55:30;5.43;;;2.60;;
64966;SDS011;51710;38.732;-121.358;2022-08-21T06:57:57;5.28;;;2.33;;
64966;SDS011;51710;38.732;-121.358;2022-08-21T07:00:24;5.55;;;2.40;;
64966;SDS011;51710;38.732;-121.358;2022-08-21T07:02:51;6.20;;;2.40;;
64966;SDS011;51710;38.732;-121.358;2022-08-21T07:05:18;6.32;;;2.63;;
64966;SDS011;51710;38.732;-121.358;2022-08-21T07:07:44;5.00;;;2.20;;
64966;SDS011;51710;38.732;-121.358;2022-08-21T07:10:12;7.70;;;2.60;;
64966;SDS011;51710;38.732;-121.358;2022-08-21T07:12:39;5.78;;;2.53;;
64966;SDS011;51710;38.732;-121.358;2022-08-21T07:15:06;4.38;;;2.55;;
64966;SDS011;51710;38.732;-121.358;2022-08-21T07:17:32;5.90;;;2.40;;
64966;SDS011;51710;38.732;-121.358;2022-08-21T07:19:59;5.65;;;2.42;;
64966;SDS011;51710;38.732;-121.358;2022-08-21T07:22:25;3.92;;;2.40;;
64966;SDS011;51710;38.732;-121.358;2022-08-21T07:24:53;5.28;;;2.35;;
64966;SDS011;51710;38.732;-121.358;2022-08-21T07:27:20;6.13;;;2.55;;
64966;SDS011;51710;38.732;-121.358;2022-08-21T07:29:47;4.35;;;2.83;;
64966;SDS011;51710;38.732;-121.358;2022-08-21T07:32:13;4.65;;;2.15;;
64966;SDS011;51710;38.732;-121.358;2022-08-21T07:34:40;4.63;;;2.50;;
64966;SDS011;51710;38.732;-121.358;2022-08-21T07:37:07;5.57;;;2.85;;
64966;SDS011;51710;38.732;-121.358;2022-08-21T07:39:34;5.80;;;2.60;;
64966;SDS011;51710;38.732;-121.358;2022-08-21T07:42:01;6.13;;;2.38;;
64966;SDS011;51710;38.732;-121.358;2022-08-21T07:44:28;4.90;;;2.47;;
64966;SDS011;51710;38.732;-121.358;2022-08-21T07:46:54;5.90;;;2.40;;
64966;SDS011;51710;38.732;-121.358;2022-08-21T07:49:21;4.85;;;2.10;;
64966;SDS011;51710;38.732;-121.358;2022-08-21T07:51:47;5.82;;;2.28;;
64966;SDS011;51710;38.732;-121.358;2022-08-21T07:54:14;5.63;;;2.72;;
64966;SDS011;51710;38.732;-121.358;2022-08-21T07:56:40;6.53;;;3.00;;
64966;SDS011;51710;38.732;-121.358;2022-08-21T07:59:06;7.40;;;2.80;;
64966;SDS011;51710;38.732;-121.358;2022-08-21T08:01:33;7.00;;;2.20;;
64966;SDS011;51710;38.732;-121.358;2022-08-21T08:03:59;4.85;;;2.58;;
64966;SDS011;51710;38.732;-121.358;2022-08-21T08:06:26;4.32;;;2.25;;
64966;SDS011;51710;38.732;-121.358;2022-08-21T08:08:52;5.22;;;2.50;;
64966;SDS011;51710;38.732;-121.358;2022-08-21T08:11:19;7.22;;;2.28;;
64966;SDS011;51710;38.732;-121.358;2022-08-21T08:13:46;3.97;;;2.40;;
64966;SDS011;51710;38.732;-121.358;2022-08-21T08:16:14;4.75;;;2.30;;
64966;SDS011;51710;38.732;-121.358;2022-08-21T08:18:41;5.40;;;2.67;;
64966;SDS011;51710;38.732;-121.358;2022-08-21T08:21:10;5.53;;;2.47;;
64966;SDS011;51710;38.732;-121.358;2022-08-21T08:23:38;4.32;;;2.00;;
64966;SDS011;51710;38.732;-121.358;2022-08-21T08:26:04;4.65;;;2.50;;
64966;SDS011;51710;38.732;-121.358;2022-08-21T08:28:31;5.40;;;2.67;;
64966;SDS011;51710;38.732;-121.358;2022-08-21T08:30:59;4.60;;;2.28;;
64966;SDS011;51710;38.732;-121.358;2022-08-21T08:33:26;6.15;;;2.50;;
64966;SDS011;51710;38.732;-121.358;2022-08-21T08:35:53;6.35;;;2.28;;
64966;SDS011;51710;38.732;-121.358;2022-08-21T08:38:20;7.53;;;2.30;;
64966;SDS011;51710;38.732;-121.358;2022-08-21T08:41:02;5.00;;;2.45;;
64966;SDS011;51710;38.732;-121.358;2022-08-21T08:43:38;4.28;;;2.42;;
64966;SDS011;51710;38.732;-121.358;2022-08-21T08:46:11;4.63;;;2.40;;
64966;SDS011;51710;38.732;-121.358;2022-08-21T08:48:54;3.65;;;1.92;;
64966;SDS011;51710;38.732;-121.358;2022-08-21T08:54:11;5.65;;;2.30;;
64966;SDS011;51710;38.732;-121.358;2022-08-21T08:56:43;5.22;;;2.50;;
64966;SDS011;51710;38.732;-121.358;2022-08-21T08:59:21;6.53;;;2.45;;
64966;SDS011;51710;38.732;-121.358;2022-08-21T09:01:53;6.55;;;2.83;;
64966;SDS011;51710;38.732;-121.358;2022-08-21T09:04:22;5.60;;;2.15;;
64966;SDS011;51710;38.732;-121.358;2022-08-21T09:12:37;4.18;;;2.58;;
64966;SDS011;51710;38.732;-121.358;2022-08-21T09:21:46;4.40;;;2.25;;
64966;SDS011;51710;38.732;-121.358;2022-08-21T09:26:20;6.97;;;3.13;;
64966;SDS011;51710;38.732;-121.358;2022-08-21T09:28:54;4.60;;;2.30;;
64966;SDS011;51710;38.732;-121.358;2022-08-21T09:34:02;6.80;;;2.53;;
64966;SDS011;51710;38.732;-121.358;2022-08-21T09:36:44;4.05;;;2.45;;
64966;SDS011;51710;38.732;-121.358;2022-08-21T09:39:22;4.93;;;2.28;;
64966;SDS011;51710;38.732;-121.358;2022-08-21T09:42:01;5.53;;;2.22;;
64966;SDS011;51710;38.732;-121.358;2022-08-21T09:44:31;4.20;;;2.45;;
64966;SDS011;51710;38.732;-121.358;2022-08-21T09:47:07;5.10;;;2.63;;
64966;SDS011;51710;38.732;-121.358;2022-08-21T09:49:39;3.90;;;1.92;;
64966;SDS011;51710;38.732;-121.358;2022-08-21T09:52:20;5.43;;;2.72;;
64966;SDS011;51710;38.732;-121.358;2022-08-21T09:54:51;4.22;;;2.30;;
64966;SDS011;51710;38.732;-121.358;2022-08-21T09:57:23;6.00;;;2.10;;
64966;SDS011;51710;38.732;-121.358;2022-08-21T10:00:37;5.03;;;2.40;;
64966;SDS011;51710;38.732;-121.358;2022-08-21T10:03:08;4.63;;;2.10;;
64966;SDS011;51710;38.732;-121.358;2022-08-21T10:05:35;4.30;;;2.60;;
64966;SDS011;51710;38.732;-121.358;2022-08-21T10:08:03;5.15;;;2.00;;
64966;SDS011;51710;38.732;-121.358;2022-08-21T10:10:32;3.85;;;2.05;;
64966;SDS011;51710;38.732;-121.358;2022-08-21T10:13:09;7.47;;;2.65;;
64966;SDS011;51710;38.732;-121.358;2022-08-21T10:16:15;6.50;;;2.30;;
64966;SDS011;51710;38.732;-121.358;2022-08-21T10:18:38;5.65;;;2.22;;
64966;SDS011;51710;38.732;-121.358;2022-08-21T10:23:42;3.85;;;1.92;;
64966;SDS011;51710;38.732;-121.358;2022-08-21T10:26:20;4.43;;;2.00;;
64966;SDS011;51710;38.732;-121.358;2022-08-21T10:35:10;4.35;;;2.20;;
64966;SDS011;51710;38.732;-121.358;2022-08-21T10:40:26;5.82;;;2.83;;
64966;SDS011;51710;38.732;-121.358;2022-08-21T10:43:15;4.55;;;1.88;;
64966;SDS011;51710;38.732;-121.358;2022-08-21T10:51:00;7.03;;;2.58;;
64966;SDS011;51710;38.732;-121.358;2022-08-21T10:54:02;5.32;;;2.17;;
64966;SDS011;51710;38.732;-121.358;2022-08-21T10:56:40;6.10;;;2.33;;
64966;SDS011;51710;38.732;-121.358;2022-08-21T11:01:49;4.45;;;2.05;;
64966;SDS011;51710;38.732;-121.358;2022-08-21T11:07:03;4.28;;;2.25;;
64966;SDS011;51710;38.732;-121.358;2022-08-21T11:09:40;6.90;;;1.90;;
64966;SDS011;51710;38.732;-121.358;2022-08-21T11:18:10;4.60;;;1.73;;
64966;SDS011;51710;38.732;-121.358;2022-08-21T11:23:33;5.28;;;2.20;;
64966;SDS011;51710;38.732;-121.358;2022-08-21T11:26:23;5.90;;;2.15;;
64966;SDS011;51710;38.732;-121.358;2022-08-21T11:28:59;7.80;;;2.08;;
64966;SDS011;51710;38.732;-121.358;2022-08-21T11:34:12;4.30;;;1.75;;
64966;SDS011;51710;38.732;-121.358;2022-08-21T11:37:12;5.43;;;2.17;;
64966;SDS011;51710;38.732;-121.358;2022-08-21T11:42:42;4.50;;;2.55;;
64966;SDS011;51710;38.732;-121.358;2022-08-21T11:48:11;5.80;;;2.40;;
64966;SDS011;51710;38.732;-121.358;2022-08-21T11:50:58;5.82;;;2.03;;
64966;SDS011;51710;38.732;-121.358;2022-08-21T11:56:12;4.55;;;1.77;;
64966;SDS011;51710;38.732;-121.358;2022-08-21T11:58:45;4.90;;;1.80;;
64966;SDS011;51710;38.732;-121.358;2022-08-21T12:01:18;5.13;;;2.22;;
64966;SDS011;51710;38.732;-121.358;2022-08-21T12:04:08;7.53;;;2.42;;
64966;SDS011;51710;38.732;-121.358;2022-08-21T12:06:44;4.28;;;1.70;;
64966;SDS011;51710;38.732;-121.358;2022-08-21T12:12:02;4.40;;;1.85;;
64966;SDS011;51710;38.732;-121.358;2022-08-21T12:14:45;5.13;;;1.98;;
64966;SDS011;51710;38.732;-121.358;2022-08-21T12:17:34;6.65;;;2.40;;
64966;SDS011;51710;38.732;-121.358;2022-08-21T12:22:54;6.72;;;2.30;;
64966;SDS011;51710;38.732;-121.358;2022-08-21T12:25:46;4.65;;;1.90;;
64966;SDS011;51710;38.732;-121.358;2022-08-21T12:28:26;4.47;;;1.77;;
64966;SDS011;51710;38.732;-121.358;2022-08-21T12:30:54;3.55;;;1.70;;
64966;SDS011;51710;38.732;-121.358;2022-08-21T12:33:31;2.65;;;1.70;;
64966;SDS011;51710;38.732;-121.358;2022-08-21T12:36:16;5.03;;;1.90;;
64966;SDS011;51710;38.732;-121.358;2022-08-21T12:39:03;4.85;;;2.00;;
64966;SDS011;51710;38.732;-121.358;2022-08-21T12:41:49;6.57;;;1.98;;
64966;SDS011;51710;38.732;-121.358;2022-08-21T12:44:28;5.25;;;1.83;;
64966;SDS011;51710;38.732;-121.358;2022-08-21T12:47:05;4.53;;;1.95;;
64966;SDS011;51710;38.732;-121.358;2022-08-21T12:55:53;6.43;;;2.13;;
64966;SDS011;51710;38.732;-121.358;2022-08-21T12:58:25;5.55;;;2.00;;
64966;SDS011;51710;38.732;-121.358;2022-08-21T13:00:56;5.30;;;2.15;;
64966;SDS011;51710;38.732;-121.358;2022-08-21T13:03:29;4.35;;;2.15;;
64966;SDS011;51710;38.732;-121.358;2022-08-21T13:05:58;3.25;;;1.67;;
64966;SDS011;51710;38.732;-121.358;2022-08-21T13:08:27;6.28;;;2.03;;
64966;SDS011;51710;38.732;-121.358;2022-08-21T13:10:58;5.53;;;2.15;;
64966;SDS011;51710;38.732;-121.358;2022-08-21T13:13:27;4.38;;;1.60;;
64966;SDS011;51710;38.732;-121.358;2022-08-21T13:16:00;4.80;;;1.95;;
64966;SDS011;51710;38.732;-121.358;2022-08-21T13:18:30;2.78;;;1.38;;
64966;SDS011;51710;38.732;-121.358;2022-08-21T13:21:06;4.47;;;1.70;;
64966;SDS011;51710;38.732;-121.358;2022-08-21T13:23:37;5.57;;;1.83;;
64966;SDS011;51710;38.732;-121.358;2022-08-21T13:26:18;3.10;;;1.63;;
64966;SDS011;51710;38.732;-121.358;2022-08-21T13:28:46;5.53;;;1.92;;
64966;SDS011;51710;38.732;-121.358;2022-08-21T13:31:20;6.95;;;2.40;;
64966;SDS011;51710;38.732;-121.358;2022-08-21T13:33:52;5.30;;;1.85;;
64966;SDS011;51710;38.732;-121.358;2022-08-21T13:36:24;6.00;;;2.25;;
64966;SDS011;51710;38.732;-121.358;2022-08-21T13:38:54;3.58;;;1.48;;
64966;SDS011;51710;38.732;-121.358;2022-08-21T13:41:22;4.40;;;2.05;;
64966;SDS011;51710;38.732;-121.358;2022-08-21T13:44:00;5.10;;;1.73;;
64966;SDS011;51710;38.732;-121.358;2022-08-21T13:46:35;4.20;;;1.80;;
64966;SDS011;51710;38.732;-121.358;2022-08-21T13:49:03;6.45;;;2.05;;
64966;SDS011;51710;38.732;-121.358;2022-08-21T13:51:32;4.13;;;2.28;;
64966;SDS011;51710;38.732;-121.358;2022-08-21T13:53:59;4.65;;;1.95;;
64966;SDS011;51710;38.732;-121.358;2022-08-21T13:56:28;9.55;;;1.98;;
64966;SDS011;51710;38.732;-121.358;2022-08-21T13:58:57;4.03;;;1.83;;
64966;SDS011;51710;38.732;-121.358;2022-08-21T14:01:28;4.97;;;2.10;;
64966;SDS011;51710;38.732;-121.358;2022-08-21T14:04:16;3.92;;;1.90;;
64966;SDS011;51710;38.732;-121.358;2022-08-21T14:06:47;5.57;;;1.95;;
64966;SDS011;51710;38.732;-121.358;2022-08-21T14:11:49;4.75;;;2.00;;
64966;SDS011;51710;38.732;-121.358;2022-08-21T14:14:23;4.32;;;1.90;;
64966;SDS011;51710;38.732;-121.358;2022-08-21T14:16:55;7.88;;;2.22;;
64966;SDS011;51710;38.732;-121.358;2022-08-21T14:19:25;4.80;;;2.15;;
64966;SDS011;51710;38.732;-121.358;2022-08-21T14:22:51;3.60;;;1.58;;
64966;SDS011;51710;38.732;-121.358;2022-08-21T14:25:26;3.67;;;2.00;;
64966;SDS011;51710;38.732;-121.358;2022-08-21T14:27:57;5.35;;;1.90;;
64966;SDS011;51710;38.732;-121.358;2022-08-21T14:30:36;5.43;;;2.20;;
64966;SDS011;51710;38.732;-121.358;2022-08-21T14:33:08;6.32;;;2.25;;
64966;SDS011;51710;38.732;-121.358;2022-08-21T14:35:37;4.47;;;1.73;;
64966;SDS011;51710;38.732;-121.358;2022-08-21T14:38:18;4.90;;;1.60;;
64966;SDS011;51710;38.732;-121.358;2022-08-21T14:40:48;5.93;;;1.95;;
64966;SDS011;51710;38.732;-121.358;2022-08-21T14:43:17;4.40;;;2.05;;
64966;SDS011;51710;38.732;-121.358;2022-08-21T14:45:45;5.88;;;1.83;;
64966;SDS011;51710;38.732;-121.358;2022-08-21T14:48:11;4.18;;;1.67;;
64966;SDS011;51710;38.732;-121.358;2022-08-21T14:50:38;5.22;;;1.70;;
64966;SDS011;51710;38.732;-121.358;2022-08-21T14:53:05;4.30;;;1.92;;
64966;SDS011;51710;38.732;-121.358;2022-08-21T14:55:32;3.92;;;1.77;;
64966;SDS011;51710;38.732;-121.358;2022-08-21T14:58:21;4.00;;;2.15;;
64966;SDS011;51710;38.732;-121.358;2022-08-21T15:00:50;4.38;;;1.65;;
64966;SDS011;51710;38.732;-121.358;2022-08-21T15:03:17;5.22;;;1.92;;
64966;SDS011;51710;38.732;-121.358;2022-08-21T15:05:46;3.75;;;1.80;;
64966;SDS011;51710;38.732;-121.358;2022-08-21T15:08:13;4.25;;;1.70;;
64966;SDS011;51710;38.732;-121.358;2022-08-21T15:10:40;4.65;;;1.50;;
64966;SDS011;51710;38.732;-121.358;2022-08-21T15:13:07;3.53;;;1.90;;
64966;SDS011;51710;38.732;-121.358;2022-08-21T15:15:35;3.53;;;1.80;;
64966;SDS011;51710;38.732;-121.358;2022-08-21T15:18:06;3.55;;;1.80;;
64966;SDS011;51710;38.732;-121.358;2022-08-21T15:20:33;5.47;;;2.00;;
64966;SDS011;51710;38.732;-121.358;2022-08-21T15:22:59;6.05;;;1.88;;
64966;SDS011;51710;38.732;-121.358;2022-08-21T15:25:26;5.47;;;1.98;;
64966;SDS011;51710;38.732;-121.358;2022-08-21T15:27:52;3.38;;;1.70;;
64966;SDS011;51710;38.732;-121.358;2022-08-21T15:30:19;4.85;;;2.15;;
64966;SDS011;51710;38.732;-121.358;2022-08-21T15:32:46;4.65;;;1.80;;
64966;SDS011;51710;38.732;-121.358;2022-08-21T15:35:12;5.82;;;1.80;;
64966;SDS011;51710;38.732;-121.358;2022-08-21T15:37:39;4.22;;;1.60;;
64966;SDS011;51710;38.732;-121.358;2022-08-21T15:40:06;4.75;;;1.80;;
64966;SDS011;51710;38.732;-121.358;2022-08-21T15:42:33;3.58;;;1.70;;
64966;SDS011;51710;38.732;-121.358;2022-08-21T15:45:00;3.80;;;1.83;;